sensor_id;sensor_type;location;lat;lon;timestamp;P1;durP1;ratioP1;P2;durP2;ratioP2
11665;SDS011;5889;51.350;6.708;2023-01-05T00:00:51;19.17;;;5.23;;
11665;SDS011;5889;51.350;6.708;2023-01-05T00:03:18;21.53;;;5.23;;
11665;SDS011;5889;51.350;6.708;2023-01-05T00:05:45;24.80;;;5.40;;
11665;SDS011;5889;51.350;6.708;2023-01-05T00:08:11;24.53;;;4.63;;
11665;SDS011;5889;51.350;6.708;2023-01-05T00:10:38;30.40;;;6.43;;
11665;SDS011;5889;51.350;6.708;2023-01-05T00:13:24;25.03;;;4.57;;
11665;SDS011;5889;51.350;6.708;2023-01-05T00:16:10;26.33;;;4.77;;
11665;SDS011;5889;51.350;6.708;2023-01-05T00:18:55;20.10;;;4.17;;
11665;SDS011;5889;51.350;6.708;2023-01-05T00:21:39;28.00;;;5.73;;
11665;SDS011;5889;51.350;6.708;2023-01-05T00:24:23;26.53;;;4.70;;
11665;SDS011;5889;51.350;6.708;2023-01-05T00:26:50;21.13;;;4.60;;
11665;SDS011;5889;51.350;6.708;2023-01-05T00:29:18;33.00;;;5.70;;
11665;SDS011;5889;51.350;6.708;2023-01-05T00:31:45;24.70;;;5.43;;
11665;SDS011;5889;51.350;6.708;2023-01-05T00:34:11;23.50;;;4.73;;
11665;SDS011;5889;51.350;6.708;2023-01-05T00:36:38;26.83;;;5.53;;
11665;SDS011;5889;51.350;6.708;2023-01-05T00:39:05;20.17;;;4.77;;
11665;SDS011;5889;51.350;6.708;2023-01-05T00:41:32;26.20;;;5.30;;
11665;SDS011;5889;51.350;6.708;2023-01-05T00:43:58;21.83;;;5.37;;
11665;SDS011;5889;51.350;6.708;2023-01-05T00:46:27;28.87;;;5.67;;
11665;SDS011;5889;51.350;6.708;2023-01-05T00:48:53;25.37;;;5.40;;
11665;SDS011;5889;51.350;6.708;2023-01-05T00:51:20;25.23;;;5.23;;
11665;SDS011;5889;51.350;6.708;2023-01-05T00:53:47;30.53;;;5.13;;
11665;SDS011;5889;51.350;6.708;2023-01-05T00:56:14;24.70;;;4.70;;
11665;SDS011;5889;51.350;6.708;2023-01-05T00:58:40;19.27;;;4.40;;
11665;SDS011;5889;51.350;6.708;2023-01-05T01:01:08;31.33;;;4.97;;
11665;SDS011;5889;51.350;6.708;2023-01-05T01:03:36;23.23;;;4.83;;
11665;SDS011;5889;51.350;6.708;2023-01-05T01:06:03;30.97;;;5.23;;
11665;SDS011;5889;51.350;6.708;2023-01-05T01:08:30;27.50;;;4.70;;
11665;SDS011;5889;51.350;6.708;2023-01-05T01:10:56;24.13;;;4.60;;
11665;SDS011;5889;51.350;6.708;2023-01-05T01:13:27;26.30;;;4.60;;
11665;SDS011;5889;51.350;6.708;2023-01-05T01:15:54;20.87;;;4.40;;
11665;SDS011;5889;51.350;6.708;2023-01-05T01:18:21;27.37;;;5.30;;
11665;SDS011;5889;51.350;6.708;2023-01-05T01:20:49;27.40;;;4.60;;
11665;SDS011;5889;51.350;6.708;2023-01-05T01:23:16;21.57;;;4.63;;
11665;SDS011;5889;51.350;6.708;2023-01-05T01:25:43;23.37;;;4.37;;
11665;SDS011;5889;51.350;6.708;2023-01-05T01:28:09;22.07;;;4.63;;
11665;SDS011;5889;51.350;6.708;2023-01-05T01:30:36;22.83;;;4.53;;
11665;SDS011;5889;51.350;6.708;2023-01-05T01:33:03;20.90;;;4.60;;
11665;SDS011;5889;51.350;6.708;2023-01-05T01:35:30;21.43;;;4.30;;
11665;SDS011;5889;51.350;6.708;2023-01-05T01:37:58;22.13;;;4.07;;
11665;SDS011;5889;51.350;6.708;2023-01-05T01:40:25;18.67;;;4.37;;
11665;SDS011;5889;51.350;6.708;2023-01-05T01:42:51;25.20;;;4.80;;
11665;SDS011;5889;51.350;6.708;2023-01-05T01:45:19;28.33;;;4.93;;
11665;SDS011;5889;51.350;6.708;2023-01-05T01:47:48;25.57;;;4.90;;
11665;SDS011;5889;51.350;6.708;2023-01-05T01:50:19;29.90;;;5.27;;
11665;SDS011;5889;51.350;6.708;2023-01-05T01:52:49;22.20;;;4.23;;
11665;SDS011;5889;51.350;6.708;2023-01-05T01:55:22;18.37;;;4.77;;
11665;SDS011;5889;51.350;6.708;2023-01-05T01:57:51;24.30;;;6.13;;
11665;SDS011;5889;51.350;6.708;2023-01-05T02:00:18;19.17;;;4.30;;
11665;SDS011;5889;51.350;6.708;2023-01-05T02:02:45;20.93;;;4.50;;
11665;SDS011;5889;51.350;6.708;2023-01-05T02:05:15;17.90;;;4.47;;
11665;SDS011;5889;51.350;6.708;2023-01-05T02:07:44;25.10;;;5.07;;
11665;SDS011;5889;51.350;6.708;2023-01-05T02:10:12;21.17;;;4.20;;
11665;SDS011;5889;51.350;6.708;2023-01-05T02:12:46;27.30;;;5.17;;
11665;SDS011;5889;51.350;6.708;2023-01-05T02:15:24;22.47;;;4.97;;
11665;SDS011;5889;51.350;6.708;2023-01-05T02:18:04;23.27;;;5.10;;
11665;SDS011;5889;51.350;6.708;2023-01-05T02:20:51;24.00;;;5.07;;
11665;SDS011;5889;51.350;6.708;2023-01-05T02:23:35;25.60;;;5.57;;
11665;SDS011;5889;51.350;6.708;2023-01-05T02:26:41;21.80;;;5.40;;
11665;SDS011;5889;51.350;6.708;2023-01-05T02:32:59;21.77;;;5.50;;
11665;SDS011;5889;51.350;6.708;2023-01-05T02:35:38;32.80;;;6.00;;
11665;SDS011;5889;51.350;6.708;2023-01-05T02:38:13;30.10;;;5.50;;
11665;SDS011;5889;51.350;6.708;2023-01-05T02:40:47;24.30;;;5.50;;
11665;SDS011;5889;51.350;6.708;2023-01-05T02:43:19;24.80;;;5.33;;
11665;SDS011;5889;51.350;6.708;2023-01-05T02:45:46;25.47;;;5.80;;
11665;SDS011;5889;51.350;6.708;2023-01-05T02:48:15;25.87;;;5.10;;
11665;SDS011;5889;51.350;6.708;2023-01-05T02:50:42;32.93;;;6.63;;
11665;SDS011;5889;51.350;6.708;2023-01-05T02:53:13;27.07;;;5.97;;
11665;SDS011;5889;51.350;6.708;2023-01-05T02:55:45;29.27;;;5.17;;
11665;SDS011;5889;51.350;6.708;2023-01-05T02:58:18;33.20;;;6.87;;
11665;SDS011;5889;51.350;6.708;2023-01-05T03:00:49;29.23;;;5.40;;
11665;SDS011;5889;51.350;6.708;2023-01-05T03:03:23;20.20;;;5.47;;
11665;SDS011;5889;51.350;6.708;2023-01-05T03:05:57;23.33;;;5.37;;
11665;SDS011;5889;51.350;6.708;2023-01-05T03:08:26;25.33;;;5.07;;
11665;SDS011;5889;51.350;6.708;2023-01-05T03:10:57;29.03;;;5.20;;
11665;SDS011;5889;51.350;6.708;2023-01-05T03:13:45;34.70;;;6.23;;
11665;SDS011;5889;51.350;6.708;2023-01-05T03:16:15;28.23;;;5.37;;
11665;SDS011;5889;51.350;6.708;2023-01-05T03:18:47;25.93;;;6.33;;
11665;SDS011;5889;51.350;6.708;2023-01-05T03:21:33;28.57;;;4.70;;
11665;SDS011;5889;51.350;6.708;2023-01-05T03:24:18;29.07;;;6.23;;
11665;SDS011;5889;51.350;6.708;2023-01-05T03:27:02;23.43;;;6.10;;
11665;SDS011;5889;51.350;6.708;2023-01-05T03:29:49;22.23;;;5.73;;
11665;SDS011;5889;51.350;6.708;2023-01-05T03:32:34;25.70;;;5.57;;
11665;SDS011;5889;51.350;6.708;2023-01-05T03:35:26;24.60;;;5.80;;
11665;SDS011;5889;51.350;6.708;2023-01-05T03:37:58;31.70;;;5.93;;
11665;SDS011;5889;51.350;6.708;2023-01-05T03:40:29;23.03;;;5.30;;
11665;SDS011;5889;51.350;6.708;2023-01-05T03:42:58;29.23;;;6.13;;
11665;SDS011;5889;51.350;6.708;2023-01-05T03:45:26;28.80;;;5.60;;
11665;SDS011;5889;51.350;6.708;2023-01-05T03:47:59;29.60;;;5.40;;
11665;SDS011;5889;51.350;6.708;2023-01-05T03:50:27;28.30;;;5.80;;
11665;SDS011;5889;51.350;6.708;2023-01-05T03:52:54;27.83;;;6.03;;
11665;SDS011;5889;51.350;6.708;2023-01-05T03:55:20;29.13;;;5.43;;
11665;SDS011;5889;51.350;6.708;2023-01-05T03:57:47;26.73;;;5.20;;
11665;SDS011;5889;51.350;6.708;2023-01-05T04:00:14;27.40;;;5.87;;
11665;SDS011;5889;51.350;6.708;2023-01-05T04:02:41;24.63;;;5.53;;
11665;SDS011;5889;51.350;6.708;2023-01-05T04:05:08;26.93;;;5.13;;
11665;SDS011;5889;51.350;6.708;2023-01-05T04:07:36;21.63;;;4.43;;
11665;SDS011;5889;51.350;6.708;2023-01-05T04:10:03;26.13;;;4.73;;
11665;SDS011;5889;51.350;6.708;2023-01-05T04:12:30;24.50;;;5.97;;
11665;SDS011;5889;51.350;6.708;2023-01-05T04:14:57;25.70;;;6.77;;
11665;SDS011;5889;51.350;6.708;2023-01-05T04:17:24;24.63;;;5.03;;
11665;SDS011;5889;51.350;6.708;2023-01-05T04:19:51;29.07;;;5.47;;
11665;SDS011;5889;51.350;6.708;2023-01-05T04:22:17;24.57;;;5.53;;
11665;SDS011;5889;51.350;6.708;2023-01-05T04:24:45;26.83;;;5.20;;
11665;SDS011;5889;51.350;6.708;2023-01-05T04:27:12;27.53;;;4.70;;
11665;SDS011;5889;51.350;6.708;2023-01-05T04:29:39;24.43;;;5.60;;
11665;SDS011;5889;51.350;6.708;2023-01-05T04:32:05;23.00;;;4.47;;
11665;SDS011;5889;51.350;6.708;2023-01-05T04:34:32;29.90;;;5.20;;
11665;SDS011;5889;51.350;6.708;2023-01-05T04:36:59;21.87;;;4.47;;
11665;SDS011;5889;51.350;6.708;2023-01-05T04:39:25;26.17;;;5.10;;
11665;SDS011;5889;51.350;6.708;2023-01-05T04:41:53;21.77;;;4.57;;
11665;SDS011;5889;51.350;6.708;2023-01-05T04:44:20;32.23;;;5.97;;
11665;SDS011;5889;51.350;6.708;2023-01-05T04:46:47;29.87;;;5.77;;
11665;SDS011;5889;51.350;6.708;2023-01-05T04:49:13;35.83;;;5.57;;
11665;SDS011;5889;51.350;6.708;2023-01-05T04:51:40;25.90;;;5.30;;
11665;SDS011;5889;51.350;6.708;2023-01-05T04:54:07;28.80;;;5.60;;
11665;SDS011;5889;51.350;6.708;2023-01-05T04:56:34;22.83;;;6.53;;
11665;SDS011;5889;51.350;6.708;2023-01-05T04:59:02;23.23;;;5.30;;
11665;SDS011;5889;51.350;6.708;2023-01-05T05:01:28;32.47;;;5.67;;
11665;SDS011;5889;51.350;6.708;2023-01-05T05:03:55;21.53;;;5.27;;
11665;SDS011;5889;51.350;6.708;2023-01-05T05:06:22;24.87;;;4.63;;
11665;SDS011;5889;51.350;6.708;2023-01-05T05:08:48;26.23;;;5.43;;
11665;SDS011;5889;51.350;6.708;2023-01-05T05:11:15;28.47;;;5.57;;
11665;SDS011;5889;51.350;6.708;2023-01-05T05:13:42;26.40;;;5.10;;
11665;SDS011;5889;51.350;6.708;2023-01-05T05:16:10;29.30;;;5.43;;
11665;SDS011;5889;51.350;6.708;2023-01-05T05:18:36;29.03;;;4.93;;
11665;SDS011;5889;51.350;6.708;2023-01-05T05:21:03;29.73;;;4.90;;
11665;SDS011;5889;51.350;6.708;2023-01-05T05:23:30;29.17;;;5.90;;
11665;SDS011;5889;51.350;6.708;2023-01-05T05:25:57;30.53;;;5.37;;
11665;SDS011;5889;51.350;6.708;2023-01-05T05:28:24;30.60;;;5.93;;
11665;SDS011;5889;51.350;6.708;2023-01-05T05:30:52;29.97;;;5.33;;
11665;SDS011;5889;51.350;6.708;2023-01-05T05:33:21;22.30;;;5.57;;
11665;SDS011;5889;51.350;6.708;2023-01-05T05:35:48;25.97;;;5.03;;
11665;SDS011;5889;51.350;6.708;2023-01-05T05:38:15;28.23;;;5.03;;
11665;SDS011;5889;51.350;6.708;2023-01-05T05:40:42;23.20;;;4.80;;
11665;SDS011;5889;51.350;6.708;2023-01-05T05:43:09;33.27;;;5.33;;
11665;SDS011;5889;51.350;6.708;2023-01-05T05:45:35;36.70;;;5.23;;
11665;SDS011;5889;51.350;6.708;2023-01-05T05:48:02;21.30;;;4.70;;
11665;SDS011;5889;51.350;6.708;2023-01-05T05:50:31;31.63;;;6.20;;
11665;SDS011;5889;51.350;6.708;2023-01-05T05:52:58;26.87;;;5.10;;
11665;SDS011;5889;51.350;6.708;2023-01-05T05:55:25;26.37;;;5.10;;
11665;SDS011;5889;51.350;6.708;2023-01-05T05:57:52;35.40;;;5.67;;
11665;SDS011;5889;51.350;6.708;2023-01-05T06:00:18;29.17;;;5.57;;
11665;SDS011;5889;51.350;6.708;2023-01-05T06:02:45;26.87;;;6.23;;
11665;SDS011;5889;51.350;6.708;2023-01-05T06:05:12;24.87;;;4.57;;
11665;SDS011;5889;51.350;6.708;2023-01-05T06:07:40;28.33;;;5.63;;
11665;SDS011;5889;51.350;6.708;2023-01-05T06:10:07;30.57;;;5.97;;
11665;SDS011;5889;51.350;6.708;2023-01-05T06:12:34;27.33;;;6.30;;
11665;SDS011;5889;51.350;6.708;2023-01-05T06:15:01;24.80;;;6.73;;
11665;SDS011;5889;51.350;6.708;2023-01-05T06:17:27;27.73;;;5.47;;
11665;SDS011;5889;51.350;6.708;2023-01-05T06:19:54;23.60;;;5.50;;
11665;SDS011;5889;51.350;6.708;2023-01-05T06:22:21;31.80;;;5.53;;
11665;SDS011;5889;51.350;6.708;2023-01-05T06:24:49;28.27;;;5.97;;
11665;SDS011;5889;51.350;6.708;2023-01-05T06:27:15;25.17;;;6.37;;
11665;SDS011;5889;51.350;6.708;2023-01-05T06:29:42;29.00;;;6.90;;
11665;SDS011;5889;51.350;6.708;2023-01-05T06:32:09;32.60;;;6.40;;
11665;SDS011;5889;51.350;6.708;2023-01-05T06:34:36;32.67;;;6.40;;
11665;SDS011;5889;51.350;6.708;2023-01-05T06:37:02;30.00;;;6.37;;
11665;SDS011;5889;51.350;6.708;2023-01-05T06:39:30;27.67;;;6.30;;
11665;SDS011;5889;51.350;6.708;2023-01-05T06:41:58;29.20;;;6.50;;
11665;SDS011;5889;51.350;6.708;2023-01-05T06:44:25;34.63;;;6.20;;
11665;SDS011;5889;51.350;6.708;2023-01-05T06:46:51;38.73;;;7.03;;
11665;SDS011;5889;51.350;6.708;2023-01-05T06:49:18;21.47;;;6.17;;
11665;SDS011;5889;51.350;6.708;2023-01-05T06:51:45;30.90;;;6.33;;
11665;SDS011;5889;51.350;6.708;2023-01-05T06:54:12;31.77;;;6.40;;
11665;SDS011;5889;51.350;6.708;2023-01-05T06:56:38;32.53;;;7.23;;
11665;SDS011;5889;51.350;6.708;2023-01-05T06:59:07;38.77;;;7.20;;
11665;SDS011;5889;51.350;6.708;2023-01-05T07:01:33;32.90;;;7.00;;
11665;SDS011;5889;51.350;6.708;2023-01-05T07:04:00;27.83;;;5.93;;
11665;SDS011;5889;51.350;6.708;2023-01-05T07:06:27;40.73;;;6.63;;
11665;SDS011;5889;51.350;6.708;2023-01-05T07:08:53;33.93;;;7.17;;
11665;SDS011;5889;51.350;6.708;2023-01-05T07:11:20;29.47;;;7.07;;
11665;SDS011;5889;51.350;6.708;2023-01-05T07:13:47;34.67;;;6.50;;
11665;SDS011;5889;51.350;6.708;2023-01-05T07:16:16;34.20;;;6.90;;
11665;SDS011;5889;51.350;6.708;2023-01-05T07:18:43;30.17;;;6.93;;
11665;SDS011;5889;51.350;6.708;2023-01-05T07:21:10;35.40;;;7.17;;
11665;SDS011;5889;51.350;6.708;2023-01-05T07:23:37;29.93;;;7.57;;
11665;SDS011;5889;51.350;6.708;2023-01-05T07:26:04;31.13;;;7.23;;
11665;SDS011;5889;51.350;6.708;2023-01-05T07:28:32;35.00;;;6.07;;
11665;SDS011;5889;51.350;6.708;2023-01-05T07:30:59;35.03;;;7.23;;
11665;SDS011;5889;51.350;6.708;2023-01-05T07:33:27;42.30;;;7.53;;
11665;SDS011;5889;51.350;6.708;2023-01-05T07:35:54;31.40;;;6.93;;
11665;SDS011;5889;51.350;6.708;2023-01-05T07:38:20;38.23;;;6.73;;
11665;SDS011;5889;51.350;6.708;2023-01-05T07:40:47;34.93;;;7.20;;
11665;SDS011;5889;51.350;6.708;2023-01-05T07:43:14;32.83;;;7.70;;
11665;SDS011;5889;51.350;6.708;2023-01-05T07:45:41;31.50;;;7.50;;
11665;SDS011;5889;51.350;6.708;2023-01-05T07:48:08;31.83;;;7.87;;
11665;SDS011;5889;51.350;6.708;2023-01-05T07:50:36;36.30;;;7.10;;
11665;SDS011;5889;51.350;6.708;2023-01-05T07:53:03;47.33;;;8.07;;
11665;SDS011;5889;51.350;6.708;2023-01-05T07:55:29;30.43;;;6.67;;
11665;SDS011;5889;51.350;6.708;2023-01-05T07:57:56;24.83;;;6.70;;
11665;SDS011;5889;51.350;6.708;2023-01-05T08:00:23;33.83;;;6.93;;
11665;SDS011;5889;51.350;6.708;2023-01-05T08:02:49;33.87;;;7.03;;
11665;SDS011;5889;51.350;6.708;2023-01-05T08:05:16;41.50;;;7.03;;
11665;SDS011;5889;51.350;6.708;2023-01-05T08:07:44;44.33;;;7.53;;
11665;SDS011;5889;51.350;6.708;2023-01-05T08:10:11;27.93;;;6.60;;
11665;SDS011;5889;51.350;6.708;2023-01-05T08:13:02;34.60;;;7.27;;
11665;SDS011;5889;51.350;6.708;2023-01-05T08:15:47;32.37;;;7.77;;
11665;SDS011;5889;51.350;6.708;2023-01-05T08:18:15;31.70;;;7.07;;
11665;SDS011;5889;51.350;6.708;2023-01-05T08:20:42;36.73;;;8.43;;
11665;SDS011;5889;51.350;6.708;2023-01-05T08:23:15;31.20;;;8.13;;
11665;SDS011;5889;51.350;6.708;2023-01-05T08:25:42;39.90;;;9.87;;
11665;SDS011;5889;51.350;6.708;2023-01-05T08:28:09;36.83;;;8.43;;
11665;SDS011;5889;51.350;6.708;2023-01-05T08:30:35;36.97;;;8.47;;
11665;SDS011;5889;51.350;6.708;2023-01-05T08:33:02;35.33;;;7.93;;
11665;SDS011;5889;51.350;6.708;2023-01-05T08:35:29;35.30;;;8.37;;
11665;SDS011;5889;51.350;6.708;2023-01-05T08:37:56;34.73;;;7.93;;
11665;SDS011;5889;51.350;6.708;2023-01-05T08:40:24;42.90;;;8.77;;
11665;SDS011;5889;51.350;6.708;2023-01-05T08:42:51;35.67;;;8.03;;
11665;SDS011;5889;51.350;6.708;2023-01-05T08:45:17;41.33;;;8.13;;
11665;SDS011;5889;51.350;6.708;2023-01-05T08:47:44;35.23;;;7.67;;
11665;SDS011;5889;51.350;6.708;2023-01-05T08:50:11;37.30;;;8.30;;
11665;SDS011;5889;51.350;6.708;2023-01-05T08:52:38;39.67;;;8.47;;
11665;SDS011;5889;51.350;6.708;2023-01-05T08:55:05;38.10;;;7.80;;
11665;SDS011;5889;51.350;6.708;2023-01-05T08:57:34;34.33;;;7.80;;
11665;SDS011;5889;51.350;6.708;2023-01-05T09:00:01;40.70;;;7.63;;
11665;SDS011;5889;51.350;6.708;2023-01-05T09:02:28;35.47;;;7.33;;
11665;SDS011;5889;51.350;6.708;2023-01-05T09:04:55;33.70;;;7.07;;
11665;SDS011;5889;51.350;6.708;2023-01-05T09:07:21;26.43;;;6.77;;
11665;SDS011;5889;51.350;6.708;2023-01-05T09:09:48;48.83;;;8.67;;
11665;SDS011;5889;51.350;6.708;2023-01-05T09:12:15;38.13;;;6.80;;
11665;SDS011;5889;51.350;6.708;2023-01-05T09:14:46;37.57;;;7.10;;
11665;SDS011;5889;51.350;6.708;2023-01-05T09:17:13;43.17;;;7.77;;
11665;SDS011;5889;51.350;6.708;2023-01-05T09:19:40;37.47;;;7.53;;
11665;SDS011;5889;51.350;6.708;2023-01-05T09:22:06;40.97;;;7.90;;
11665;SDS011;5889;51.350;6.708;2023-01-05T09:24:33;38.10;;;7.67;;
11665;SDS011;5889;51.350;6.708;2023-01-05T09:27:00;32.37;;;8.40;;
11665;SDS011;5889;51.350;6.708;2023-01-05T09:29:27;38.40;;;8.13;;
11665;SDS011;5889;51.350;6.708;2023-01-05T09:31:55;38.67;;;7.43;;
11665;SDS011;5889;51.350;6.708;2023-01-05T09:34:22;37.57;;;8.10;;
11665;SDS011;5889;51.350;6.708;2023-01-05T09:36:49;41.83;;;6.87;;
11665;SDS011;5889;51.350;6.708;2023-01-05T09:39:16;40.87;;;7.37;;
11665;SDS011;5889;51.350;6.708;2023-01-05T09:41:43;42.40;;;7.53;;
11665;SDS011;5889;51.350;6.708;2023-01-05T09:44:15;32.97;;;7.77;;
11665;SDS011;5889;51.350;6.708;2023-01-05T09:46:51;31.83;;;7.03;;
11665;SDS011;5889;51.350;6.708;2023-01-05T09:49:22;32.23;;;7.73;;
11665;SDS011;5889;51.350;6.708;2023-01-05T09:51:53;34.60;;;7.20;;
11665;SDS011;5889;51.350;6.708;2023-01-05T09:54:22;32.43;;;6.87;;
11665;SDS011;5889;51.350;6.708;2023-01-05T09:56:53;36.47;;;8.07;;
11665;SDS011;5889;51.350;6.708;2023-01-05T09:59:22;40.33;;;9.07;;
11665;SDS011;5889;51.350;6.708;2023-01-05T10:01:51;35.97;;;7.77;;
11665;SDS011;5889;51.350;6.708;2023-01-05T10:04:22;32.40;;;7.00;;
11665;SDS011;5889;51.350;6.708;2023-01-05T10:06:52;34.83;;;6.87;;
11665;SDS011;5889;51.350;6.708;2023-01-05T10:09:26;34.50;;;6.67;;
11665;SDS011;5889;51.350;6.708;2023-01-05T10:11:56;32.60;;;6.60;;
11665;SDS011;5889;51.350;6.708;2023-01-05T10:14:46;31.97;;;6.90;;
11665;SDS011;5889;51.350;6.708;2023-01-05T10:17:16;35.07;;;7.13;;
11665;SDS011;5889;51.350;6.708;2023-01-05T10:19:46;38.90;;;6.87;;
11665;SDS011;5889;51.350;6.708;2023-01-05T10:22:26;39.63;;;7.27;;
11665;SDS011;5889;51.350;6.708;2023-01-05T10:25:06;34.60;;;7.07;;
11665;SDS011;5889;51.350;6.708;2023-01-05T10:27:42;30.97;;;7.50;;
11665;SDS011;5889;51.350;6.708;2023-01-05T10:30:19;30.17;;;6.77;;
11665;SDS011;5889;51.350;6.708;2023-01-05T10:32:51;30.47;;;6.17;;
11665;SDS011;5889;51.350;6.708;2023-01-05T10:35:35;33.13;;;7.40;;
11665;SDS011;5889;51.350;6.708;2023-01-05T10:38:10;28.90;;;6.90;;
11665;SDS011;5889;51.350;6.708;2023-01-05T10:40:50;40.40;;;7.70;;
11665;SDS011;5889;51.350;6.708;2023-01-05T10:46:21;39.83;;;7.33;;
11665;SDS011;5889;51.350;6.708;2023-01-05T10:48:48;27.63;;;6.83;;
11665;SDS011;5889;51.350;6.708;2023-01-05T10:51:16;29.93;;;6.87;;
11665;SDS011;5889;51.350;6.708;2023-01-05T10:53:43;31.77;;;6.40;;
11665;SDS011;5889;51.350;6.708;2023-01-05T10:56:11;24.43;;;6.70;;
11665;SDS011;5889;51.350;6.708;2023-01-05T10:58:40;36.53;;;6.87;;
11665;SDS011;5889;51.350;6.708;2023-01-05T11:01:22;41.43;;;6.27;;
11665;SDS011;5889;51.350;6.708;2023-01-05T11:03:54;32.17;;;6.43;;
11665;SDS011;5889;51.350;6.708;2023-01-05T11:06:29;29.23;;;6.20;;
11665;SDS011;5889;51.350;6.708;2023-01-05T11:09:03;36.50;;;7.87;;
11665;SDS011;5889;51.350;6.708;2023-01-05T11:11:35;38.97;;;7.77;;
11665;SDS011;5889;51.350;6.708;2023-01-05T11:14:02;32.87;;;6.23;;
11665;SDS011;5889;51.350;6.708;2023-01-05T11:16:32;28.17;;;6.13;;
11665;SDS011;5889;51.350;6.708;2023-01-05T11:19:02;34.27;;;6.70;;
11665;SDS011;5889;51.350;6.708;2023-01-05T11:21:40;33.60;;;6.97;;
11665;SDS011;5889;51.350;6.708;2023-01-05T11:24:24;33.30;;;6.03;;
11665;SDS011;5889;51.350;6.708;2023-01-05T11:26:54;33.97;;;6.63;;
11665;SDS011;5889;51.350;6.708;2023-01-05T11:29:22;39.80;;;7.40;;
11665;SDS011;5889;51.350;6.708;2023-01-05T11:31:51;29.87;;;6.93;;
11665;SDS011;5889;51.350;6.708;2023-01-05T11:34:26;31.07;;;6.80;;
11665;SDS011;5889;51.350;6.708;2023-01-05T11:37:00;37.57;;;6.93;;
11665;SDS011;5889;51.350;6.708;2023-01-05T11:39:30;27.27;;;6.13;;
11665;SDS011;5889;51.350;6.708;2023-01-05T11:42:04;30.07;;;7.07;;
11665;SDS011;5889;51.350;6.708;2023-01-05T11:44:33;27.33;;;7.53;;
11665;SDS011;5889;51.350;6.708;2023-01-05T11:47:01;31.13;;;6.30;;
11665;SDS011;5889;51.350;6.708;2023-01-05T11:49:31;29.40;;;6.50;;
11665;SDS011;5889;51.350;6.708;2023-01-05T11:52:00;35.43;;;7.97;;
11665;SDS011;5889;51.350;6.708;2023-01-05T11:54:31;28.13;;;6.67;;
11665;SDS011;5889;51.350;6.708;2023-01-05T11:57:11;27.63;;;6.77;;
11665;SDS011;5889;51.350;6.708;2023-01-05T11:59:40;35.20;;;6.43;;
11665;SDS011;5889;51.350;6.708;2023-01-05T12:02:14;28.60;;;6.50;;
11665;SDS011;5889;51.350;6.708;2023-01-05T12:05:01;30.77;;;8.17;;
11665;SDS011;5889;51.350;6.708;2023-01-05T12:07:37;36.00;;;7.33;;
11665;SDS011;5889;51.350;6.708;2023-01-05T12:10:18;35.87;;;7.33;;
11665;SDS011;5889;51.350;6.708;2023-01-05T12:12:57;32.53;;;7.60;;
11665;SDS011;5889;51.350;6.708;2023-01-05T12:15:38;41.30;;;8.70;;
11665;SDS011;5889;51.350;6.708;2023-01-05T12:18:18;33.40;;;7.27;;
11665;SDS011;5889;51.350;6.708;2023-01-05T12:20:54;36.63;;;8.57;;
11665;SDS011;5889;51.350;6.708;2023-01-05T12:23:48;35.30;;;8.47;;
11665;SDS011;5889;51.350;6.708;2023-01-05T12:26:26;34.90;;;7.77;;
11665;SDS011;5889;51.350;6.708;2023-01-05T12:29:13;31.13;;;7.97;;
11665;SDS011;5889;51.350;6.708;2023-01-05T12:31:59;38.43;;;9.53;;
11665;SDS011;5889;51.350;6.708;2023-01-05T12:34:52;39.23;;;7.50;;
11665;SDS011;5889;51.350;6.708;2023-01-05T12:37:45;30.77;;;8.57;;
11665;SDS011;5889;51.350;6.708;2023-01-05T12:40:31;24.77;;;7.43;;
11665;SDS011;5889;51.350;6.708;2023-01-05T12:43:08;26.90;;;7.57;;
11665;SDS011;5889;51.350;6.708;2023-01-05T12:45:50;37.27;;;7.90;;
11665;SDS011;5889;51.350;6.708;2023-01-05T12:48:38;34.50;;;7.80;;
11665;SDS011;5889;51.350;6.708;2023-01-05T12:51:10;27.33;;;7.17;;
11665;SDS011;5889;51.350;6.708;2023-01-05T12:53:43;27.33;;;6.83;;
11665;SDS011;5889;51.350;6.708;2023-01-05T12:56:18;31.07;;;7.50;;
11665;SDS011;5889;51.350;6.708;2023-01-05T12:59:01;27.10;;;7.37;;
11665;SDS011;5889;51.350;6.708;2023-01-05T13:01:38;34.60;;;7.63;;
11665;SDS011;5889;51.350;6.708;2023-01-05T13:04:11;25.73;;;7.60;;
11665;SDS011;5889;51.350;6.708;2023-01-05T13:06:47;30.43;;;8.23;;
11665;SDS011;5889;51.350;6.708;2023-01-05T13:09:19;28.80;;;7.43;;
11665;SDS011;5889;51.350;6.708;2023-01-05T13:11:50;28.23;;;7.87;;
11665;SDS011;5889;51.350;6.708;2023-01-05T13:14:22;31.07;;;7.97;;
11665;SDS011;5889;51.350;6.708;2023-01-05T13:16:53;29.57;;;8.00;;
11665;SDS011;5889;51.350;6.708;2023-01-05T13:19:26;33.90;;;8.50;;
11665;SDS011;5889;51.350;6.708;2023-01-05T13:21:58;36.17;;;8.30;;
11665;SDS011;5889;51.350;6.708;2023-01-05T13:24:28;28.63;;;7.70;;
11665;SDS011;5889;51.350;6.708;2023-01-05T13:27:00;28.43;;;7.40;;
11665;SDS011;5889;51.350;6.708;2023-01-05T13:29:28;31.33;;;8.10;;
11665;SDS011;5889;51.350;6.708;2023-01-05T13:35:04;27.17;;;7.70;;
11665;SDS011;5889;51.350;6.708;2023-01-05T13:37:48;25.40;;;6.30;;
11665;SDS011;5889;51.350;6.708;2023-01-05T13:41:00;30.47;;;8.03;;
11665;SDS011;5889;51.350;6.708;2023-01-05T13:43:48;23.17;;;7.13;;
11665;SDS011;5889;51.350;6.708;2023-01-05T13:46:48;24.90;;;6.57;;
11665;SDS011;5889;51.350;6.708;2023-01-05T13:49:37;26.40;;;7.67;;
11665;SDS011;5889;51.350;6.708;2023-01-05T13:52:41;23.23;;;7.10;;
11665;SDS011;5889;51.350;6.708;2023-01-05T13:55:18;21.60;;;6.30;;
11665;SDS011;5889;51.350;6.708;2023-01-05T13:57:47;26.30;;;6.67;;
11665;SDS011;5889;51.350;6.708;2023-01-05T14:00:23;25.60;;;7.07;;
11665;SDS011;5889;51.350;6.708;2023-01-05T14:02:57;18.93;;;6.57;;
11665;SDS011;5889;51.350;6.708;2023-01-05T14:05:31;23.97;;;7.73;;
11665;SDS011;5889;51.350;6.708;2023-01-05T14:08:03;25.30;;;7.17;;
11665;SDS011;5889;51.350;6.708;2023-01-05T14:10:39;24.57;;;6.80;;
11665;SDS011;5889;51.350;6.708;2023-01-05T14:13:34;27.17;;;7.30;;
11665;SDS011;5889;51.350;6.708;2023-01-05T14:19:26;26.90;;;7.30;;
11665;SDS011;5889;51.350;6.708;2023-01-05T14:22:22;23.17;;;7.27;;
11665;SDS011;5889;51.350;6.708;2023-01-05T14:28:18;20.33;;;6.23;;
11665;SDS011;5889;51.350;6.708;2023-01-05T14:34:04;22.03;;;6.37;;
11665;SDS011;5889;51.350;6.708;2023-01-05T14:36:38;24.33;;;6.70;;
11665;SDS011;5889;51.350;6.708;2023-01-05T14:39:19;27.70;;;7.50;;
11665;SDS011;5889;51.350;6.708;2023-01-05T14:41:54;28.00;;;7.67;;
11665;SDS011;5889;51.350;6.708;2023-01-05T14:44:29;24.77;;;7.17;;
11665;SDS011;5889;51.350;6.708;2023-01-05T14:47:05;19.13;;;6.17;;
11665;SDS011;5889;51.350;6.708;2023-01-05T14:49:34;17.40;;;6.27;;
11665;SDS011;5889;51.350;6.708;2023-01-05T14:52:04;21.00;;;7.00;;
11665;SDS011;5889;51.350;6.708;2023-01-05T14:57:36;20.67;;;6.60;;
11665;SDS011;5889;51.350;6.708;2023-01-05T15:00:12;22.50;;;6.40;;
11665;SDS011;5889;51.350;6.708;2023-01-05T15:02:43;26.53;;;7.90;;
11665;SDS011;5889;51.350;6.708;2023-01-05T15:05:17;24.83;;;6.63;;
11665;SDS011;5889;51.350;6.708;2023-01-05T15:07:46;25.90;;;6.77;;
11665;SDS011;5889;51.350;6.708;2023-01-05T15:10:25;25.50;;;7.03;;
11665;SDS011;5889;51.350;6.708;2023-01-05T15:13:30;26.80;;;6.50;;
11665;SDS011;5889;51.350;6.708;2023-01-05T15:16:29;22.73;;;7.50;;
11665;SDS011;5889;51.350;6.708;2023-01-05T15:19:11;29.60;;;8.07;;
11665;SDS011;5889;51.350;6.708;2023-01-05T15:21:58;22.87;;;7.83;;
11665;SDS011;5889;51.350;6.708;2023-01-05T15:24:43;35.57;;;8.30;;
11665;SDS011;5889;51.350;6.708;2023-01-05T15:27:32;22.87;;;6.30;;
11665;SDS011;5889;51.350;6.708;2023-01-05T15:30:16;20.43;;;6.13;;
11665;SDS011;5889;51.350;6.708;2023-01-05T15:32:56;30.57;;;7.63;;
11665;SDS011;5889;51.350;6.708;2023-01-05T15:35:34;21.30;;;6.20;;
11665;SDS011;5889;51.350;6.708;2023-01-05T15:38:15;26.60;;;6.67;;